sensor_id;sensor_type;location;lat;lon;timestamp;temperature;humidity
41628;DHT22;27321;50.816;6.054;2022-07-06T00:01:54;18.10;56.60
41628;DHT22;27321;50.816;6.054;2022-07-06T00:04:55;18.10;56.40
41628;DHT22;27321;50.816;6.054;2022-07-06T00:07:58;18.00;56.40
41628;DHT22;27321;50.816;6.054;2022-07-06T00:10:59;18.00;56.70
41628;DHT22;27321;50.816;6.054;2022-07-06T00:14:00;17.90;56.50
41628;DHT22;27321;50.816;6.054;2022-07-06T00:17:01;17.90;56.50
41628;DHT22;27321;50.816;6.054;2022-07-06T00:20:03;17.90;56.40
41628;DHT22;27321;50.816;6.054;2022-07-06T00:23:04;17.90;56.60
41628;DHT22;27321;50.816;6.054;2022-07-06T00:26:05;17.90;56.40
41628;DHT22;27321;50.816;6.054;2022-07-06T00:29:06;18.00;56.50
41628;DHT22;27321;50.816;6.054;2022-07-06T00:32:07;18.00;56.70
41628;DHT22;27321;50.816;6.054;2022-07-06T00:35:09;17.90;56.30
41628;DHT22;27321;50.816;6.054;2022-07-06T00:38:10;17.90;56.50
41628;DHT22;27321;50.816;6.054;2022-07-06T00:41:12;17.90;56.30
41628;DHT22;27321;50.816;6.054;2022-07-06T00:44:14;17.80;56.30
41628;DHT22;27321;50.816;6.054;2022-07-06T00:47:17;17.80;56.10
41628;DHT22;27321;50.816;6.054;2022-07-06T00:50:19;17.80;56.60
41628;DHT22;27321;50.816;6.054;2022-07-06T00:53:26;17.80;55.90
41628;DHT22;27321;50.816;6.054;2022-07-06T00:56:29;17.60;56.70
41628;DHT22;27321;50.816;6.054;2022-07-06T00:59:32;17.50;57.40
41628;DHT22;27321;50.816;6.054;2022-07-06T01:02:34;17.60;57.40
41628;DHT22;27321;50.816;6.054;2022-07-06T01:05:37;17.60;57.50
41628;DHT22;27321;50.816;6.054;2022-07-06T01:08:38;17.60;57.50
41628;DHT22;27321;50.816;6.054;2022-07-06T01:11:39;17.60;57.50
41628;DHT22;27321;50.816;6.054;2022-07-06T01:14:41;17.60;57.60
41628;DHT22;27321;50.816;6.054;2022-07-06T01:17:44;17.60;57.60
41628;DHT22;27321;50.816;6.054;2022-07-06T01:20:45;17.50;57.70
41628;DHT22;27321;50.816;6.054;2022-07-06T01:23:47;17.50;57.80
41628;DHT22;27321;50.816;6.054;2022-07-06T01:26:48;17.40;57.90
41628;DHT22;27321;50.816;6.054;2022-07-06T01:29:50;17.40;58.10
41628;DHT22;27321;50.816;6.054;2022-07-06T01:32:51;17.40;58.00
41628;DHT22;27321;50.816;6.054;2022-07-06T01:35:52;17.40;58.10
41628;DHT22;27321;50.816;6.054;2022-07-06T01:38:55;17.40;58.00
41628;DHT22;27321;50.816;6.054;2022-07-06T01:41:59;17.40;58.10
41628;DHT22;27321;50.816;6.054;2022-07-06T01:45:01;17.40;58.00
41628;DHT22;27321;50.816;6.054;2022-07-06T01:48:06;17.30;58.10
41628;DHT22;27321;50.816;6.054;2022-07-06T01:51:08;17.30;58.10
41628;DHT22;27321;50.816;6.054;2022-07-06T01:54:11;17.30;58.40
41628;DHT22;27321;50.816;6.054;2022-07-06T01:57:13;17.20;58.30
41628;DHT22;27321;50.816;6.054;2022-07-06T02:00:14;17.20;58.40
41628;DHT22;27321;50.816;6.054;2022-07-06T02:03:24;17.10;58.60
41628;DHT22;27321;50.816;6.054;2022-07-06T02:06:25;17.10;58.60
41628;DHT22;27321;50.816;6.054;2022-07-06T02:09:26;17.00;58.70
41628;DHT22;27321;50.816;6.054;2022-07-06T02:12:28;17.00;58.80
41628;DHT22;27321;50.816;6.054;2022-07-06T02:15:29;17.00;58.80
41628;DHT22;27321;50.816;6.054;2022-07-06T02:18:31;17.00;58.80
41628;DHT22;27321;50.816;6.054;2022-07-06T02:21:32;17.00;58.90
41628;DHT22;27321;50.816;6.054;2022-07-06T02:24:35;17.00;58.90
41628;DHT22;27321;50.816;6.054;2022-07-06T02:27:36;16.90;58.90
41628;DHT22;27321;50.816;6.054;2022-07-06T02:30:40;16.90;59.10
41628;DHT22;27321;50.816;6.054;2022-07-06T02:33:41;16.80;59.20
41628;DHT22;27321;50.816;6.054;2022-07-06T02:36:42;16.80;59.40
41628;DHT22;27321;50.816;6.054;2022-07-06T02:39:43;16.70;59.30
41628;DHT22;27321;50.816;6.054;2022-07-06T02:42:44;16.60;59.50
41628;DHT22;27321;50.816;6.054;2022-07-06T02:45:46;16.60;59.90
41628;DHT22;27321;50.816;6.054;2022-07-06T02:48:48;16.60;59.80
41628;DHT22;27321;50.816;6.054;2022-07-06T02:51:49;16.60;59.80
41628;DHT22;27321;50.816;6.054;2022-07-06T02:54:50;16.60;59.90
41628;DHT22;27321;50.816;6.054;2022-07-06T02:57:53;16.60;59.80
41628;DHT22;27321;50.816;6.054;2022-07-06T03:00:54;16.60;59.80
41628;DHT22;27321;50.816;6.054;2022-07-06T03:03:55;16.60;59.80
41628;DHT22;27321;50.816;6.054;2022-07-06T03:06:56;16.60;59.90
41628;DHT22;27321;50.816;6.054;2022-07-06T03:09:57;16.60;60.00
41628;DHT22;27321;50.816;6.054;2022-07-06T03:12:59;16.60;59.90
41628;DHT22;27321;50.816;6.054;2022-07-06T03:16:01;16.50;59.80
41628;DHT22;27321;50.816;6.054;2022-07-06T03:19:03;16.50;59.90
41628;DHT22;27321;50.816;6.054;2022-07-06T03:22:04;16.50;59.90
41628;DHT22;27321;50.816;6.054;2022-07-06T03:25:06;16.50;60.20
41628;DHT22;27321;50.816;6.054;2022-07-06T03:28:08;16.40;60.20
41628;DHT22;27321;50.816;6.054;2022-07-06T03:31:09;16.40;60.50
41628;DHT22;27321;50.816;6.054;2022-07-06T03:34:10;16.30;60.40
41628;DHT22;27321;50.816;6.054;2022-07-06T03:37:12;16.20;60.60
41628;DHT22;27321;50.816;6.054;2022-07-06T03:40:15;16.20;60.70
41628;DHT22;27321;50.816;6.054;2022-07-06T03:43:17;16.20;60.80
41628;DHT22;27321;50.816;6.054;2022-07-06T03:46:18;16.20;61.00
41628;DHT22;27321;50.816;6.054;2022-07-06T03:49:20;16.20;61.00
41628;DHT22;27321;50.816;6.054;2022-07-06T03:52:21;16.20;61.20
41628;DHT22;27321;50.816;6.054;2022-07-06T03:55:28;16.10;61.30
41628;DHT22;27321;50.816;6.054;2022-07-06T03:58:34;16.10;61.10
41628;DHT22;27321;50.816;6.054;2022-07-06T04:01:35;16.10;61.30
41628;DHT22;27321;50.816;6.054;2022-07-06T04:04:36;16.00;61.40
41628;DHT22;27321;50.816;6.054;2022-07-06T04:07:37;16.00;61.50
41628;DHT22;27321;50.816;6.054;2022-07-06T04:10:38;16.00;61.60
41628;DHT22;27321;50.816;6.054;2022-07-06T04:13:40;16.00;62.10
41628;DHT22;27321;50.816;6.054;2022-07-06T04:16:42;16.00;62.00
41628;DHT22;27321;50.816;6.054;2022-07-06T04:19:43;16.10;62.10
41628;DHT22;27321;50.816;6.054;2022-07-06T04:22:44;16.10;62.00
41628;DHT22;27321;50.816;6.054;2022-07-06T04:25:45;16.10;62.10
41628;DHT22;27321;50.816;6.054;2022-07-06T04:28:47;16.10;62.10
41628;DHT22;27321;50.816;6.054;2022-07-06T04:31:48;16.00;62.40
41628;DHT22;27321;50.816;6.054;2022-07-06T04:34:49;16.10;62.50
41628;DHT22;27321;50.816;6.054;2022-07-06T04:37:50;16.10;62.80
41628;DHT22;27321;50.816;6.054;2022-07-06T04:40:54;16.10;62.80
41628;DHT22;27321;50.816;6.054;2022-07-06T04:43:55;16.20;62.90
41628;DHT22;27321;50.816;6.054;2022-07-06T04:46:57;16.20;63.00
41628;DHT22;27321;50.816;6.054;2022-07-06T04:49:58;16.30;63.30
41628;DHT22;27321;50.816;6.054;2022-07-06T04:53:00;16.30;62.80
41628;DHT22;27321;50.816;6.054;2022-07-06T04:56:01;16.40;63.10
41628;DHT22;27321;50.816;6.054;2022-07-06T04:59:05;16.50;63.00
41628;DHT22;27321;50.816;6.054;2022-07-06T05:02:07;16.50;62.80
41628;DHT22;27321;50.816;6.054;2022-07-06T05:05:08;16.60;62.90
41628;DHT22;27321;50.816;6.054;2022-07-06T05:08:12;16.60;62.70
41628;DHT22;27321;50.816;6.054;2022-07-06T05:11:15;16.60;62.50
41628;DHT22;27321;50.816;6.054;2022-07-06T05:14:17;16.60;62.90
41628;DHT22;27321;50.816;6.054;2022-07-06T05:17:18;16.70;62.70
41628;DHT22;27321;50.816;6.054;2022-07-06T05:20:19;16.80;62.60
41628;DHT22;27321;50.816;6.054;2022-07-06T05:23:22;16.90;62.40
41628;DHT22;27321;50.816;6.054;2022-07-06T05:26:23;16.90;61.30
41628;DHT22;27321;50.816;6.054;2022-07-06T05:29:25;17.00;62.30
41628;DHT22;27321;50.816;6.054;2022-07-06T05:32:27;17.00;62.10
41628;DHT22;27321;50.816;6.054;2022-07-06T05:35:29;17.10;62.00
41628;DHT22;27321;50.816;6.054;2022-07-06T05:38:30;17.10;61.50
41628;DHT22;27321;50.816;6.054;2022-07-06T05:41:33;17.10;61.50
41628;DHT22;27321;50.816;6.054;2022-07-06T05:44:35;17.20;61.60
41628;DHT22;27321;50.816;6.054;2022-07-06T05:47:36;17.30;61.60
41628;DHT22;27321;50.816;6.054;2022-07-06T05:50:57;17.30;61.30
41628;DHT22;27321;50.816;6.054;2022-07-06T05:53:58;17.30;60.10
41628;DHT22;27321;50.816;6.054;2022-07-06T05:57:00;17.30;60.40
41628;DHT22;27321;50.816;6.054;2022-07-06T06:00:02;17.40;60.90
41628;DHT22;27321;50.816;6.054;2022-07-06T06:03:05;17.40;60.80
41628;DHT22;27321;50.816;6.054;2022-07-06T06:06:06;17.40;59.80
41628;DHT22;27321;50.816;6.054;2022-07-06T06:09:08;17.40;59.80
41628;DHT22;27321;50.816;6.054;2022-07-06T06:12:09;17.30;60.20
41628;DHT22;27321;50.816;6.054;2022-07-06T06:15:11;17.40;59.50
41628;DHT22;27321;50.816;6.054;2022-07-06T06:18:13;17.30;60.10
41628;DHT22;27321;50.816;6.054;2022-07-06T06:21:17;17.30;59.60
41628;DHT22;27321;50.816;6.054;2022-07-06T06:24:18;17.30;60.30
41628;DHT22;27321;50.816;6.054;2022-07-06T06:27:19;17.40;60.50
41628;DHT22;27321;50.816;6.054;2022-07-06T06:30:20;17.40;60.60
41628;DHT22;27321;50.816;6.054;2022-07-06T06:33:21;17.50;60.50
41628;DHT22;27321;50.816;6.054;2022-07-06T06:36:22;17.50;60.00
41628;DHT22;27321;50.816;6.054;2022-07-06T06:39:24;17.40;60.80
41628;DHT22;27321;50.816;6.054;2022-07-06T06:42:25;17.40;60.80
41628;DHT22;27321;50.816;6.054;2022-07-06T06:45:26;17.50;59.80
41628;DHT22;27321;50.816;6.054;2022-07-06T06:48:27;17.30;60.10
41628;DHT22;27321;50.816;6.054;2022-07-06T06:51:29;17.30;61.20
41628;DHT22;27321;50.816;6.054;2022-07-06T06:54:30;17.30;61.80
41628;DHT22;27321;50.816;6.054;2022-07-06T06:57:31;17.30;60.70
41628;DHT22;27321;50.816;6.054;2022-07-06T07:00:32;17.30;61.50
41628;DHT22;27321;50.816;6.054;2022-07-06T07:03:33;17.30;60.20
41628;DHT22;27321;50.816;6.054;2022-07-06T07:06:35;17.30;60.60
41628;DHT22;27321;50.816;6.054;2022-07-06T07:09:36;17.40;59.90
41628;DHT22;27321;50.816;6.054;2022-07-06T07:12:47;17.50;59.70
41628;DHT22;27321;50.816;6.054;2022-07-06T07:15:48;17.50;59.70
41628;DHT22;27321;50.816;6.054;2022-07-06T07:18:50;17.60;59.60
41628;DHT22;27321;50.816;6.054;2022-07-06T07:21:52;17.70;59.30
41628;DHT22;27321;50.816;6.054;2022-07-06T07:24:53;17.70;58.90
41628;DHT22;27321;50.816;6.054;2022-07-06T07:27:54;17.80;59.60
41628;DHT22;27321;50.816;6.054;2022-07-06T07:30:55;17.80;59.40
41628;DHT22;27321;50.816;6.054;2022-07-06T07:33:56;17.90;58.60
41628;DHT22;27321;50.816;6.054;2022-07-06T07:36:59;17.90;58.70
41628;DHT22;27321;50.816;6.054;2022-07-06T07:40:01;18.00;56.10
41628;DHT22;27321;50.816;6.054;2022-07-06T07:43:03;18.10;56.90
41628;DHT22;27321;50.816;6.054;2022-07-06T07:46:04;18.20;57.60
41628;DHT22;27321;50.816;6.054;2022-07-06T07:49:05;18.30;57.60
41628;DHT22;27321;50.816;6.054;2022-07-06T07:52:11;18.30;54.80
41628;DHT22;27321;50.816;6.054;2022-07-06T07:55:12;18.20;54.70
41628;DHT22;27321;50.816;6.054;2022-07-06T07:58:13;18.00;54.50
41628;DHT22;27321;50.816;6.054;2022-07-06T08:01:15;18.00;54.50
41628;DHT22;27321;50.816;6.054;2022-07-06T08:04:16;18.00;54.40
41628;DHT22;27321;50.816;6.054;2022-07-06T08:07:17;17.80;54.10
41628;DHT22;27321;50.816;6.054;2022-07-06T08:10:19;17.90;54.20
41628;DHT22;27321;50.816;6.054;2022-07-06T08:13:20;17.80;54.10
41628;DHT22;27321;50.816;6.054;2022-07-06T08:16:22;18.00;54.70
41628;DHT22;27321;50.816;6.054;2022-07-06T08:19:23;18.00;54.20
41628;DHT22;27321;50.816;6.054;2022-07-06T08:22:24;18.10;55.20
41628;DHT22;27321;50.816;6.054;2022-07-06T08:25:26;18.30;55.50
41628;DHT22;27321;50.816;6.054;2022-07-06T08:28:27;18.50;55.20
41628;DHT22;27321;50.816;6.054;2022-07-06T08:31:28;18.60;55.20
41628;DHT22;27321;50.816;6.054;2022-07-06T08:34:30;18.70;54.60
41628;DHT22;27321;50.816;6.054;2022-07-06T08:37:32;18.80;55.10
41628;DHT22;27321;50.816;6.054;2022-07-06T08:40:34;18.90;54.90
41628;DHT22;27321;50.816;6.054;2022-07-06T08:43:37;19.00;55.10
41628;DHT22;27321;50.816;6.054;2022-07-06T08:46:38;19.00;54.20
41628;DHT22;27321;50.816;6.054;2022-07-06T08:49:40;19.00;54.10
41628;DHT22;27321;50.816;6.054;2022-07-06T08:52:43;19.10;54.10
41628;DHT22;27321;50.816;6.054;2022-07-06T08:55:47;19.10;53.10
41628;DHT22;27321;50.816;6.054;2022-07-06T08:58:49;19.10;52.40
41628;DHT22;27321;50.816;6.054;2022-07-06T09:01:51;19.20;51.50
41628;DHT22;27321;50.816;6.054;2022-07-06T09:04:56;19.20;51.40
41628;DHT22;27321;50.816;6.054;2022-07-06T09:08:02;19.30;51.80
41628;DHT22;27321;50.816;6.054;2022-07-06T09:11:04;19.40;50.70
41628;DHT22;27321;50.816;6.054;2022-07-06T09:14:05;19.40;51.10
41628;DHT22;27321;50.816;6.054;2022-07-06T09:17:09;19.50;51.00
41628;DHT22;27321;50.816;6.054;2022-07-06T09:20:15;19.50;51.10
41628;DHT22;27321;50.816;6.054;2022-07-06T09:23:17;19.60;51.30
41628;DHT22;27321;50.816;6.054;2022-07-06T09:26:18;19.70;50.70
41628;DHT22;27321;50.816;6.054;2022-07-06T09:29:28;19.80;50.20
41628;DHT22;27321;50.816;6.054;2022-07-06T09:32:31;19.70;49.60
41628;DHT22;27321;50.816;6.054;2022-07-06T09:35:38;19.80;49.80
41628;DHT22;27321;50.816;6.054;2022-07-06T09:38:42;19.80;48.10
41628;DHT22;27321;50.816;6.054;2022-07-06T09:41:45;19.80;47.20
41628;DHT22;27321;50.816;6.054;2022-07-06T09:44:47;19.70;46.70
41628;DHT22;27321;50.816;6.054;2022-07-06T09:47:51;19.70;47.50
41628;DHT22;27321;50.816;6.054;2022-07-06T09:50:55;19.90;47.70
41628;DHT22;27321;50.816;6.054;2022-07-06T09:53:58;20.00;48.50
41628;DHT22;27321;50.816;6.054;2022-07-06T09:57:00;20.10;48.60
41628;DHT22;27321;50.816;6.054;2022-07-06T10:00:02;20.10;48.00
41628;DHT22;27321;50.816;6.054;2022-07-06T10:03:14;20.10;46.90
41628;DHT22;27321;50.816;6.054;2022-07-06T10:06:15;20.10;46.30
41628;DHT22;27321;50.816;6.054;2022-07-06T10:09:18;20.00;47.40
41628;DHT22;27321;50.816;6.054;2022-07-06T10:12:22;20.10;48.00
41628;DHT22;27321;50.816;6.054;2022-07-06T10:15:28;20.10;47.70
41628;DHT22;27321;50.816;6.054;2022-07-06T10:18:33;20.20;46.70
41628;DHT22;27321;50.816;6.054;2022-07-06T10:21:39;20.20;45.30
41628;DHT22;27321;50.816;6.054;2022-07-06T10:24:41;20.30;46.70
41628;DHT22;27321;50.816;6.054;2022-07-06T10:27:46;20.40;47.20
41628;DHT22;27321;50.816;6.054;2022-07-06T10:30:49;20.50;47.30
41628;DHT22;27321;50.816;6.054;2022-07-06T10:33:51;20.60;46.70
41628;DHT22;27321;50.816;6.054;2022-07-06T10:36:53;20.60;47.20
41628;DHT22;27321;50.816;6.054;2022-07-06T10:39:57;20.70;44.90
41628;DHT22;27321;50.816;6.054;2022-07-06T10:43:17;20.60;43.30
41628;DHT22;27321;50.816;6.054;2022-07-06T10:46:18;20.60;45.10
41628;DHT22;27321;50.816;6.054;2022-07-06T10:49:22;20.80;45.20
41628;DHT22;27321;50.816;6.054;2022-07-06T10:52:52;20.90;44.40
41628;DHT22;27321;50.816;6.054;2022-07-06T10:55:55;21.00;45.20
41628;DHT22;27321;50.816;6.054;2022-07-06T10:59:08;21.00;44.30
41628;DHT22;27321;50.816;6.054;2022-07-06T11:05:41;20.80;44.90
41628;DHT22;27321;50.816;6.054;2022-07-06T11:12:14;20.80;43.50
41628;DHT22;27321;50.816;6.054;2022-07-06T11:15:46;20.90;43.20
41628;DHT22;27321;50.816;6.054;2022-07-06T11:19:12;21.00;44.70
41628;DHT22;27321;50.816;6.054;2022-07-06T11:22:22;21.30;45.10
41628;DHT22;27321;50.816;6.054;2022-07-06T11:25:25;21.40;43.80
41628;DHT22;27321;50.816;6.054;2022-07-06T11:28:26;21.40;43.80
41628;DHT22;27321;50.816;6.054;2022-07-06T11:31:28;21.50;43.80
41628;DHT22;27321;50.816;6.054;2022-07-06T11:34:33;21.60;44.30
41628;DHT22;27321;50.816;6.054;2022-07-06T11:37:35;21.70;43.00
41628;DHT22;27321;50.816;6.054;2022-07-06T11:40:40;21.70;41.90
41628;DHT22;27321;50.816;6.054;2022-07-06T11:43:45;21.60;42.50
41628;DHT22;27321;50.816;6.054;2022-07-06T11:46:48;21.80;43.50
41628;DHT22;27321;50.816;6.054;2022-07-06T11:49:51;21.80;42.50
41628;DHT22;27321;50.816;6.054;2022-07-06T11:52:55;21.90;42.60
41628;DHT22;27321;50.816;6.054;2022-07-06T11:56:02;21.90;41.80
41628;DHT22;27321;50.816;6.054;2022-07-06T11:59:03;21.90;42.20
41628;DHT22;27321;50.816;6.054;2022-07-06T12:02:07;22.00;42.60
41628;DHT22;27321;50.816;6.054;2022-07-06T12:05:10;22.10;41.50
41628;DHT22;27321;50.816;6.054;2022-07-06T12:08:12;22.00;42.10
41628;DHT22;27321;50.816;6.054;2022-07-06T12:11:24;22.10;42.80
41628;DHT22;27321;50.816;6.054;2022-07-06T12:14:33;22.10;42.70
41628;DHT22;27321;50.816;6.054;2022-07-06T12:17:35;22.10;41.60
41628;DHT22;27321;50.816;6.054;2022-07-06T12:20:43;22.10;42.80
41628;DHT22;27321;50.816;6.054;2022-07-06T12:23:47;22.40;43.20
41628;DHT22;27321;50.816;6.054;2022-07-06T12:26:50;22.50;42.90
41628;DHT22;27321;50.816;6.054;2022-07-06T12:29:52;22.60;42.10
41628;DHT22;27321;50.816;6.054;2022-07-06T12:33:14;22.70;42.50
41628;DHT22;27321;50.816;6.054;2022-07-06T12:36:21;22.60;41.20
41628;DHT22;27321;50.816;6.054;2022-07-06T12:39:26;22.60;42.00
41628;DHT22;27321;50.816;6.054;2022-07-06T12:42:28;22.70;41.80
41628;DHT22;27321;50.816;6.054;2022-07-06T12:45:30;22.80;42.40
41628;DHT22;27321;50.816;6.054;2022-07-06T12:48:31;22.90;40.70
41628;DHT22;27321;50.816;6.054;2022-07-06T12:51:55;22.80;42.20
41628;DHT22;27321;50.816;6.054;2022-07-06T12:55:09;22.60;41.60
41628;DHT22;27321;50.816;6.054;2022-07-06T12:58:18;22.50;40.90
41628;DHT22;27321;50.816;6.054;2022-07-06T13:01:20;22.50;41.40
41628;DHT22;27321;50.816;6.054;2022-07-06T13:04:21;22.50;42.60
41628;DHT22;27321;50.816;6.054;2022-07-06T13:07:22;22.50;43.00
41628;DHT22;27321;50.816;6.054;2022-07-06T13:10:24;22.60;42.80
41628;DHT22;27321;50.816;6.054;2022-07-06T13:13:26;22.60;41.80
41628;DHT22;27321;50.816;6.054;2022-07-06T13:16:27;22.60;42.80
41628;DHT22;27321;50.816;6.054;2022-07-06T13:19:34;22.60;42.50
41628;DHT22;27321;50.816;6.054;2022-07-06T13:22:36;22.60;42.20
41628;DHT22;27321;50.816;6.054;2022-07-06T13:25:37;22.70;42.40
41628;DHT22;27321;50.816;6.054;2022-07-06T13:28:39;22.60;41.40
41628;DHT22;27321;50.816;6.054;2022-07-06T13:31:40;22.60;41.10
41628;DHT22;27321;50.816;6.054;2022-07-06T13:34:41;22.50;41.70
41628;DHT22;27321;50.816;6.054;2022-07-06T13:37:42;22.50;42.80
41628;DHT22;27321;50.816;6.054;2022-07-06T13:40:44;22.60;42.70
41628;DHT22;27321;50.816;6.054;2022-07-06T13:43:45;22.60;42.50
41628;DHT22;27321;50.816;6.054;2022-07-06T13:46:46;22.70;43.10
41628;DHT22;27321;50.816;6.054;2022-07-06T13:49:47;22.60;41.30
41628;DHT22;27321;50.816;6.054;2022-07-06T13:52:48;22.60;42.50
41628;DHT22;27321;50.816;6.054;2022-07-06T13:55:50;22.70;41.70
41628;DHT22;27321;50.816;6.054;2022-07-06T13:58:51;22.80;42.30
41628;DHT22;27321;50.816;6.054;2022-07-06T14:01:52;22.80;42.80
41628;DHT22;27321;50.816;6.054;2022-07-06T14:04:54;22.60;42.10
41628;DHT22;27321;50.816;6.054;2022-07-06T14:07:59;22.50;43.20
41628;DHT22;27321;50.816;6.054;2022-07-06T14:11:00;22.50;43.20
41628;DHT22;27321;50.816;6.054;2022-07-06T14:14:02;22.50;44.00
41628;DHT22;27321;50.816;6.054;2022-07-06T14:17:07;22.50;43.70
41628;DHT22;27321;50.816;6.054;2022-07-06T14:20:09;22.60;43.00
41628;DHT22;27321;50.816;6.054;2022-07-06T14:23:11;22.70;43.80
41628;DHT22;27321;50.816;6.054;2022-07-06T14:26:12;22.80;44.00
41628;DHT22;27321;50.816;6.054;2022-07-06T14:29:16;23.00;43.90
41628;DHT22;27321;50.816;6.054;2022-07-06T14:32:18;23.00;43.70
41628;DHT22;27321;50.816;6.054;2022-07-06T14:35:20;23.10;42.70
41628;DHT22;27321;50.816;6.054;2022-07-06T14:38:21;23.10;43.10
41628;DHT22;27321;50.816;6.054;2022-07-06T14:41:22;23.10;42.50
41628;DHT22;27321;50.816;6.054;2022-07-06T14:44:23;23.10;42.90
41628;DHT22;27321;50.816;6.054;2022-07-06T14:47:24;23.10;43.10
41628;DHT22;27321;50.816;6.054;2022-07-06T14:50:26;23.10;42.90
41628;DHT22;27321;50.816;6.054;2022-07-06T14:53:28;23.20;42.90
41628;DHT22;27321;50.816;6.054;2022-07-06T14:56:33;23.10;43.20
41628;DHT22;27321;50.816;6.054;2022-07-06T14:59:35;23.10;42.70
41628;DHT22;27321;50.816;6.054;2022-07-06T15:02:37;23.10;43.00
41628;DHT22;27321;50.816;6.054;2022-07-06T15:05:38;23.10;42.90
41628;DHT22;27321;50.816;6.054;2022-07-06T15:08:39;23.20;43.40
41628;DHT22;27321;50.816;6.054;2022-07-06T15:11:41;23.20;42.80
41628;DHT22;27321;50.816;6.054;2022-07-06T15:14:42;23.20;43.70
41628;DHT22;27321;50.816;6.054;2022-07-06T15:17:43;23.30;43.60
41628;DHT22;27321;50.816;6.054;2022-07-06T15:20:44;23.30;43.40
41628;DHT22;27321;50.816;6.054;2022-07-06T15:23:46;23.20;43.60
41628;DHT22;27321;50.816;6.054;2022-07-06T15:26:47;23.20;43.40
41628;DHT22;27321;50.816;6.054;2022-07-06T15:29:49;23.20;43.80
41628;DHT22;27321;50.816;6.054;2022-07-06T15:32:51;23.30;42.90
41628;DHT22;27321;50.816;6.054;2022-07-06T15:35:52;23.30;42.30
41628;DHT22;27321;50.816;6.054;2022-07-06T15:38:53;23.30;42.00
41628;DHT22;27321;50.816;6.054;2022-07-06T15:41:54;23.30;42.80
41628;DHT22;27321;50.816;6.054;2022-07-06T15:44:55;23.40;42.50
41628;DHT22;27321;50.816;6.054;2022-07-06T15:47:56;23.50;43.00
41628;DHT22;27321;50.816;6.054;2022-07-06T15:50:59;23.60;43.30
41628;DHT22;27321;50.816;6.054;2022-07-06T15:54:03;23.70;43.60
41628;DHT22;27321;50.816;6.054;2022-07-06T15:57:11;23.80;42.00
41628;DHT22;27321;50.816;6.054;2022-07-06T16:00:16;23.90;42.70
41628;DHT22;27321;50.816;6.054;2022-07-06T16:03:17;23.90;42.80
41628;DHT22;27321;50.816;6.054;2022-07-06T16:06:20;24.00;42.90
41628;DHT22;27321;50.816;6.054;2022-07-06T16:09:22;24.10;42.30
41628;DHT22;27321;50.816;6.054;2022-07-06T16:12:26;24.10;42.80
41628;DHT22;27321;50.816;6.054;2022-07-06T16:15:29;24.00;42.80
41628;DHT22;27321;50.816;6.054;2022-07-06T16:18:30;24.10;43.10
41628;DHT22;27321;50.816;6.054;2022-07-06T16:21:31;24.10;43.20
41628;DHT22;27321;50.816;6.054;2022-07-06T16:24:32;24.20;42.50
41628;DHT22;27321;50.816;6.054;2022-07-06T16:27:34;24.20;42.70
41628;DHT22;27321;50.816;6.054;2022-07-06T16:30:37;24.30;42.40
41628;DHT22;27321;50.816;6.054;2022-07-06T16:33:38;24.50;42.50
41628;DHT22;27321;50.816;6.054;2022-07-06T16:36:39;24.50;42.00
41628;DHT22;27321;50.816;6.054;2022-07-06T16:39:41;24.40;41.50
41628;DHT22;27321;50.816;6.054;2022-07-06T16:49:50;24.50;41.70
41628;DHT22;27321;50.816;6.054;2022-07-06T16:53:15;24.40;41.60
41628;DHT22;27321;50.816;6.054;2022-07-06T18:23:01;23.50;45.00
41628;DHT22;27321;50.816;6.054;2022-07-06T18:26:03;23.40;45.00
41628;DHT22;27321;50.816;6.054;2022-07-06T18:29:06;23.30;45.10
41628;DHT22;27321;50.816;6.054;2022-07-06T18:32:07;23.30;45.60
41628;DHT22;27321;50.816;6.054;2022-07-06T18:35:08;23.20;45.70
41628;DHT22;27321;50.816;6.054;2022-07-06T18:38:10;23.10;45.80
41628;DHT22;27321;50.816;6.054;2022-07-06T18:41:12;23.10;45.90
41628;DHT22;27321;50.816;6.054;2022-07-06T18:44:13;23.00;46.10
41628;DHT22;27321;50.816;6.054;2022-07-06T18:47:14;22.90;46.70
41628;DHT22;27321;50.816;6.054;2022-07-06T18:50:21;22.90;46.60
41628;DHT22;27321;50.816;6.054;2022-07-06T18:53:22;22.90;47.30
41628;DHT22;27321;50.816;6.054;2022-07-06T18:56:23;22.90;47.90
41628;DHT22;27321;50.816;6.054;2022-07-06T18:59:24;22.80;48.20
41628;DHT22;27321;50.816;6.054;2022-07-06T19:02:27;22.80;48.00
41628;DHT22;27321;50.816;6.054;2022-07-06T19:05:28;22.80;48.00
41628;DHT22;27321;50.816;6.054;2022-07-06T19:08:29;22.80;48.20
41628;DHT22;27321;50.816;6.054;2022-07-06T19:11:33;22.80;48.50
41628;DHT22;27321;50.816;6.054;2022-07-06T19:14:34;22.80;49.00
41628;DHT22;27321;50.816;6.054;2022-07-06T19:17:36;22.70;49.00
41628;DHT22;27321;50.816;6.054;2022-07-06T19:20:39;22.70;49.70
41628;DHT22;27321;50.816;6.054;2022-07-06T19:23:40;22.60;49.80
41628;DHT22;27321;50.816;6.054;2022-07-06T19:26:42;22.60;50.00
41628;DHT22;27321;50.816;6.054;2022-07-06T19:29:43;22.60;50.50
41628;DHT22;27321;50.816;6.054;2022-07-06T19:32:44;22.60;51.00
41628;DHT22;27321;50.816;6.054;2022-07-06T19:35:45;22.60;51.10
41628;DHT22;27321;50.816;6.054;2022-07-06T19:38:47;22.60;51.00
41628;DHT22;27321;50.816;6.054;2022-07-06T19:41:54;22.50;50.60
41628;DHT22;27321;50.816;6.054;2022-07-06T19:44:55;22.50;50.40
41628;DHT22;27321;50.816;6.054;2022-07-06T19:47:57;22.50;50.60
41628;DHT22;27321;50.816;6.054;2022-07-06T19:50:58;22.50;51.10
41628;DHT22;27321;50.816;6.054;2022-07-06T19:54:02;22.40;51.20
41628;DHT22;27321;50.816;6.054;2022-07-06T19:57:04;22.30;51.50
41628;DHT22;27321;50.816;6.054;2022-07-06T20:00:06;22.30;51.70
41628;DHT22;27321;50.816;6.054;2022-07-06T20:03:11;22.20;52.20
41628;DHT22;27321;50.816;6.054;2022-07-06T20:06:12;22.10;52.90
41628;DHT22;27321;50.816;6.054;2022-07-06T20:09:15;22.00;52.80
41628;DHT22;27321;50.816;6.054;2022-07-06T20:12:16;21.80;53.00
41628;DHT22;27321;50.816;6.054;2022-07-06T20:15:18;21.80;53.40
41628;DHT22;27321;50.816;6.054;2022-07-06T20:18:20;21.80;53.90
41628;DHT22;27321;50.816;6.054;2022-07-06T20:21:21;21.60;54.30
41628;DHT22;27321;50.816;6.054;2022-07-06T20:24:22;21.70;54.70
41628;DHT22;27321;50.816;6.054;2022-07-06T20:27:23;21.70;55.00
41628;DHT22;27321;50.816;6.054;2022-07-06T20:30:26;21.70;55.30
41628;DHT22;27321;50.816;6.054;2022-07-06T20:33:27;21.80;55.60
41628;DHT22;27321;50.816;6.054;2022-07-06T20:36:28;21.70;55.90
41628;DHT22;27321;50.816;6.054;2022-07-06T20:39:29;21.60;55.70
41628;DHT22;27321;50.816;6.054;2022-07-06T20:42:30;21.70;56.30
41628;DHT22;27321;50.816;6.054;2022-07-06T20:45:31;21.60;56.50
41628;DHT22;27321;50.816;6.054;2022-07-06T20:48:32;21.60;56.60
41628;DHT22;27321;50.816;6.054;2022-07-06T20:51:33;21.50;56.90
41628;DHT22;27321;50.816;6.054;2022-07-06T20:54:34;21.50;56.90